createdAt,value
2022-10-04T00:00:41.251Z,0.43
2022-10-04T00:03:45.750Z,0.30
2022-10-04T00:06:54.192Z,0.52
2022-10-04T00:09:59.194Z,0.20
2022-10-04T00:13:03.444Z,0.30
2022-10-04T00:16:05.640Z,0.30
2022-10-04T00:19:25.157Z,0.40
2022-10-04T00:22:28.856Z,0.38
2022-10-04T00:25:35.770Z,0.40
2022-10-04T00:28:45.839Z,0.30
2022-10-04T00:32:12.704Z,0.38
2022-10-04T00:35:42.745Z,0.40
2022-10-04T00:39:11.735Z,0.50
2022-10-04T00:42:26.478Z,0.32
2022-10-04T00:45:34.668Z,0.30
2022-10-04T00:48:43.700Z,0.20
2022-10-04T00:51:49.691Z,0.30
2022-10-04T00:54:56.402Z,0.30
2022-10-04T00:58:00.602Z,0.20
2022-10-04T01:01:04.189Z,0.25
2022-10-04T01:04:13.233Z,0.20
2022-10-04T01:07:18.209Z,0.30
2022-10-04T01:10:25.188Z,0.30
2022-10-04T01:13:30.689Z,0.38
2022-10-04T01:16:35.430Z,0.30
2022-10-04T01:19:40.578Z,0.20
2022-10-04T01:22:49.703Z,0.28
2022-10-04T01:25:52.048Z,0.38
2022-10-04T01:28:53.991Z,0.28
2022-10-04T01:31:58.094Z,0.30
2022-10-04T01:34:59.595Z,0.30
2022-10-04T01:38:05.909Z,0.30
2022-10-04T01:41:09.411Z,0.30
2022-10-04T01:44:17.262Z,0.30
2022-10-04T01:47:23.806Z,0.22
2022-10-04T01:50:29.624Z,0.30
2022-10-04T01:53:36.506Z,0.20
2022-10-04T01:56:45.897Z,0.30
2022-10-04T01:59:52.163Z,0.20
2022-10-04T02:02:58.351Z,0.20
2022-10-04T02:06:03.970Z,0.25
2022-10-04T02:09:10.253Z,0.40
2022-10-04T02:12:15.893Z,0.20
2022-10-04T02:15:20.948Z,0.30
2022-10-04T02:18:24.589Z,0.32
2022-10-04T02:21:26.188Z,0.30
2022-10-04T02:24:28.770Z,0.22
2022-10-04T02:27:31.630Z,0.45
2022-10-04T02:30:36.291Z,0.30
2022-10-04T02:33:40.372Z,0.30
2022-10-04T02:36:41.963Z,0.30
2022-10-04T02:39:50.594Z,0.30
2022-10-04T02:42:59.905Z,0.25
2022-10-04T02:46:06.666Z,0.30
2022-10-04T02:49:19.469Z,0.30
2022-10-04T02:52:26.539Z,0.22
2022-10-04T02:55:30.814Z,0.20
2022-10-04T02:58:36.913Z,0.28
2022-10-04T03:01:47.180Z,0.40
2022-10-04T03:04:50.586Z,0.30
2022-10-04T03:07:53.067Z,0.32
2022-10-04T03:10:56.048Z,0.30
2022-10-04T03:13:59.648Z,0.30
2022-10-04T03:17:04.424Z,0.47
2022-10-04T03:20:08.431Z,0.30
2022-10-04T03:23:11.363Z,0.30
2022-10-04T03:26:24.359Z,0.57
2022-10-04T03:29:31.245Z,0.30
2022-10-04T03:32:33.347Z,0.38
2022-10-04T03:35:37.395Z,0.40
2022-10-04T03:38:39.669Z,0.38
2022-10-04T03:41:45.102Z,0.60
2022-10-04T03:44:48.331Z,0.30
2022-10-04T03:47:53.258Z,0.30
2022-10-04T03:50:55.144Z,0.40
2022-10-04T03:53:58.698Z,0.47
2022-10-04T03:57:02.515Z,0.47
2022-10-04T04:00:06.117Z,0.35
2022-10-04T04:03:19.618Z,0.70
2022-10-04T04:06:22.720Z,0.50
2022-10-04T04:09:34.105Z,0.50
2022-10-04T04:12:43.603Z,0.50
2022-10-04T04:15:46.784Z,0.52
2022-10-04T04:18:49.576Z,0.70
2022-10-04T04:21:54.647Z,0.50
2022-10-04T04:24:56.727Z,0.40
2022-10-04T04:28:07.058Z,0.40
2022-10-04T04:31:18.047Z,0.55
2022-10-04T04:34:21.894Z,0.68
2022-10-04T04:37:23.404Z,0.50
2022-10-04T04:40:25.317Z,0.60
2022-10-04T04:43:27.705Z,0.50
2022-10-04T04:46:30.052Z,0.60
2022-10-04T04:49:31.834Z,0.52
2022-10-04T04:52:34.910Z,0.73
2022-10-04T04:56:01.872Z,0.68
2022-10-04T04:59:06.384Z,0.52
2022-10-04T05:02:27.876Z,0.63
2022-10-04T05:08:40.151Z,0.50
2022-10-04T05:11:43.222Z,0.50
2022-10-04T05:14:47.397Z,0.40
2022-10-04T05:17:48.799Z,0.47
2022-10-04T05:23:56.683Z,0.40
2022-10-04T05:27:02.303Z,0.40
2022-10-04T05:30:08.674Z,0.57
2022-10-04T05:33:13.935Z,0.50
2022-10-04T05:36:40.907Z,0.40
2022-10-04T05:39:48.609Z,0.52
2022-10-04T05:42:53.499Z,0.40
2022-10-04T05:46:14.981Z,0.40
2022-10-04T05:49:21.905Z,0.80
2022-10-04T05:52:29.934Z,0.68
2022-10-04T05:55:40.295Z,0.60
2022-10-04T05:58:56.694Z,0.80
2022-10-04T06:02:13.713Z,0.65
2022-10-04T06:05:26.896Z,0.70
2022-10-04T06:08:43.663Z,0.80
2022-10-04T06:12:01.386Z,0.73
2022-10-04T06:15:21.863Z,0.82
2022-10-04T06:18:39.886Z,0.63
2022-10-04T06:21:56.045Z,0.60
2022-10-04T06:25:02.496Z,0.40
2022-10-04T06:28:15.684Z,0.40
2022-10-04T06:31:43.297Z,0.40
2022-10-04T06:35:10.521Z,0.32
2022-10-04T06:38:32.232Z,0.50
2022-10-04T06:41:53.865Z,0.55
2022-10-04T06:45:17.029Z,0.50
2022-10-04T06:48:36.987Z,0.75
2022-10-04T06:51:58.657Z,0.50
2022-10-04T06:55:26.801Z,0.55
2022-10-04T06:58:45.578Z,0.68
2022-10-04T07:01:51.458Z,0.40
2022-10-04T07:05:14.281Z,0.38
2022-10-04T07:08:30.717Z,0.40
2022-10-04T07:11:42.263Z,0.43
2022-10-04T07:14:48.289Z,0.50
2022-10-04T07:17:52.724Z,0.30
2022-10-04T07:21:02.200Z,0.43
2022-10-04T07:24:11.441Z,0.40
2022-10-04T07:27:19.502Z,0.40
2022-10-04T07:30:21.025Z,0.40
2022-10-04T07:33:25.514Z,0.40
2022-10-04T07:36:31.687Z,0.35
2022-10-04T07:39:44.688Z,0.60
2022-10-04T07:42:52.349Z,0.30
2022-10-04T07:46:02.799Z,0.82
2022-10-04T07:49:13.093Z,0.20
2022-10-04T07:52:29.024Z,0.15
2022-10-04T07:55:42.285Z,0.28
2022-10-04T07:58:53.806Z,0.20
2022-10-04T08:02:06.266Z,0.20
2022-10-04T08:05:20.628Z,0.20
2022-10-04T08:08:37.309Z,0.38
2022-10-04T08:11:49.342Z,0.30
2022-10-04T08:15:02.803Z,0.10
2022-10-04T08:18:24.774Z,0.30
2022-10-04T08:21:36.045Z,0.32
2022-10-04T08:24:53.241Z,0.10
2022-10-04T08:28:13.080Z,0.20
2022-10-04T08:31:27.881Z,0.20
2022-10-04T08:34:44.295Z,0.30
2022-10-04T08:37:58.900Z,0.20
2022-10-04T08:41:41.297Z,0.20
2022-10-04T08:45:02.879Z,0.20
2022-10-04T08:51:50.638Z,0.20
2022-10-04T08:55:20.050Z,0.28
2022-10-04T08:58:40.449Z,0.10
2022-10-04T09:02:06.281Z,0.20
2022-10-04T09:05:33.304Z,0.15
2022-10-04T09:09:06.555Z,0.15
2022-10-04T09:12:35.295Z,0.30
2022-10-04T09:15:50.772Z,0.20
2022-10-04T09:19:19.601Z,0.20
2022-10-04T09:22:40.182Z,0.20
2022-10-04T09:26:05.652Z,0.10
2022-10-04T09:29:21.822Z,0.20
2022-10-04T09:32:45.508Z,0.20
2022-10-04T09:36:01.624Z,0.30
2022-10-04T09:39:31.289Z,0.28
2022-10-04T09:42:47.340Z,0.20
2022-10-04T09:46:02.824Z,0.32
2022-10-04T09:49:18.710Z,0.30
2022-10-04T09:52:34.502Z,0.35
2022-10-04T09:55:52.891Z,0.30
2022-10-04T09:59:17.691Z,0.10
2022-10-04T10:02:44.350Z,0.22
2022-10-04T10:06:08.447Z,0.10
2022-10-04T10:09:21.347Z,0.20
2022-10-04T10:12:53.056Z,0.30
2022-10-04T10:16:05.878Z,0.10
2022-10-04T10:19:34.832Z,0.10
2022-10-04T10:23:01.811Z,0.20
2022-10-04T10:26:23.265Z,0.20
2022-10-04T10:33:03.398Z,0.15
2022-10-04T10:36:28.314Z,0.10
2022-10-04T10:39:56.972Z,0.10
2022-10-04T10:43:19.998Z,0.10
2022-10-04T10:46:37.853Z,0.20
2022-10-04T10:49:59.464Z,0.20
2022-10-04T10:53:19.796Z,0.20
2022-10-04T10:56:35.477Z,0.10
2022-10-04T11:00:06.869Z,0.20
2022-10-04T11:03:34.151Z,0.10
2022-10-04T11:07:00.077Z,0.10
2022-10-04T11:10:33.083Z,0.20
2022-10-04T11:13:56.754Z,0.10
2022-10-04T11:17:20.106Z,0.32
2022-10-04T11:20:38.279Z,0.10
2022-10-04T11:24:00.883Z,0.10
2022-10-04T11:27:16.489Z,0.30
2022-10-04T11:30:22.628Z,0.20
2022-10-04T11:33:47.647Z,0.20
2022-10-04T11:37:04.009Z,0.10
2022-10-04T11:40:17.697Z,0.20
2022-10-04T11:43:39.347Z,0.10
2022-10-04T11:46:46.919Z,0.10
2022-10-04T11:50:03.069Z,0.10
2022-10-04T11:53:32.762Z,0.38
2022-10-04T11:56:44.174Z,0.20
2022-10-04T12:00:00.309Z,0.10
2022-10-04T12:03:27.274Z,0.10
2022-10-04T12:06:43.875Z,0.17
2022-10-04T12:09:53.454Z,0.20
2022-10-04T12:13:25.789Z,0.10
2022-10-04T12:16:50.312Z,0.13
2022-10-04T12:20:17.152Z,0.20
2022-10-04T12:23:40.513Z,0.17
2022-10-04T12:26:56.865Z,0.20
2022-10-04T12:30:20.046Z,0.10
2022-10-04T12:33:26.437Z,0.10
2022-10-04T12:36:42.813Z,0.10
2022-10-04T12:40:06.679Z,0.10
2022-10-04T12:43:16.011Z,0.10
2022-10-04T12:46:30.033Z,0.10
2022-10-04T12:49:47.908Z,0.10
2022-10-04T12:52:57.365Z,0.20
2022-10-04T12:56:06.535Z,0.20
2022-10-04T12:59:33.319Z,0.20
2022-10-04T13:02:48.129Z,0.10
2022-10-04T13:06:02.223Z,0.10
2022-10-04T13:09:16.034Z,0.22
2022-10-04T13:12:30.476Z,0.30
2022-10-04T13:19:11.557Z,0.30
2022-10-04T13:22:54.877Z,0.32
2022-10-04T13:26:14.829Z,0.20
2022-10-04T13:29:26.841Z,0.20
2022-10-04T13:32:32.794Z,0.20
2022-10-04T13:35:41.942Z,0.20
2022-10-04T13:39:00.721Z,0.10
2022-10-04T13:42:15.875Z,0.20
2022-10-04T13:45:35.363Z,0.10
2022-10-04T13:48:45.449Z,0.20
2022-10-04T13:52:13.110Z,0.10
2022-10-04T13:55:40.880Z,0.30
2022-10-04T13:58:47.764Z,0.40
2022-10-04T14:02:17.296Z,0.35
2022-10-04T14:05:52.061Z,0.30
2022-10-04T14:09:10.500Z,0.22
2022-10-04T14:12:34.022Z,0.13
2022-10-04T14:15:56.031Z,0.22
2022-10-04T14:19:30.677Z,0.25
2022-10-04T14:22:52.978Z,0.10
2022-10-04T14:26:16.575Z,0.30
2022-10-04T14:29:43.949Z,0.13
2022-10-04T14:33:09.338Z,0.10
2022-10-04T14:36:31.508Z,0.10
2022-10-04T14:39:53.485Z,0.10
2022-10-04T14:43:17.454Z,0.20
2022-10-04T14:46:27.505Z,0.10
2022-10-04T14:49:46.153Z,0.20
2022-10-04T14:52:58.435Z,0.10
2022-10-04T14:56:20.888Z,0.20
2022-10-04T14:59:45.939Z,0.10
2022-10-04T15:03:06.810Z,0.10
2022-10-04T15:06:13.295Z,0.10
2022-10-04T15:09:40.280Z,0.20
2022-10-04T15:16:31.716Z,0.17
2022-10-04T15:19:44.436Z,0.10
2022-10-04T15:22:52.902Z,0.10
2022-10-04T15:26:01.196Z,0.10
2022-10-04T15:29:15.181Z,0.20
2022-10-04T15:32:26.731Z,0.10
2022-10-04T15:35:37.032Z,0.15
2022-10-04T15:38:48.716Z,0.10
2022-10-04T15:41:56.345Z,0.10
2022-10-04T15:45:20.086Z,0.15
2022-10-04T15:48:32.748Z,0.10
2022-10-04T15:51:48.780Z,0.20
2022-10-04T15:55:10.631Z,0.17
2022-10-04T15:58:30.273Z,0.15
2022-10-04T16:01:48.698Z,0.20
2022-10-04T16:05:02.935Z,0.10
2022-10-04T16:08:24.158Z,0.30
2022-10-04T16:11:46.411Z,0.10
2022-10-04T16:14:58.162Z,0.10
2022-10-04T16:18:12.459Z,0.10
2022-10-04T16:21:27.683Z,0.20
2022-10-04T16:24:41.485Z,0.10
2022-10-04T16:27:55.904Z,0.10
2022-10-04T16:31:20.837Z,0.00
2022-10-04T16:34:42.568Z,0.10
2022-10-04T16:37:56.628Z,0.10
2022-10-04T16:41:10.338Z,0.20
2022-10-04T16:44:29.050Z,0.10
2022-10-04T16:47:34.632Z,0.20
2022-10-04T16:50:56.323Z,0.28
2022-10-04T16:54:08.923Z,0.20
2022-10-04T16:57:21.555Z,0.20
2022-10-04T17:00:33.245Z,0.17
2022-10-04T17:03:37.273Z,0.20
2022-10-04T17:06:47.785Z,0.10
2022-10-04T17:09:57.221Z,0.10
2022-10-04T17:13:18.152Z,0.10
2022-10-04T17:16:30.446Z,0.10
2022-10-04T17:19:41.884Z,0.13
2022-10-04T17:25:58.669Z,0.00
2022-10-04T17:29:08.150Z,0.10
2022-10-04T17:32:23.394Z,0.00
2022-10-04T17:35:46.922Z,0.10
2022-10-04T17:38:56.375Z,0.10
2022-10-04T17:42:09.093Z,0.10
2022-10-04T17:45:32.225Z,0.10
2022-10-04T17:48:58.611Z,0.10
2022-10-04T17:52:19.008Z,0.20
2022-10-04T17:55:27.763Z,0.20
2022-10-04T17:58:39.100Z,0.10
2022-10-04T18:01:44.600Z,0.10
2022-10-04T18:04:50.385Z,0.10
2022-10-04T18:07:58.824Z,0.10
2022-10-04T18:11:04.838Z,0.10
2022-10-04T18:14:11.675Z,0.10
2022-10-04T18:17:26.130Z,0.10
2022-10-04T18:20:33.130Z,0.20
2022-10-04T18:23:38.721Z,0.20
2022-10-04T18:26:56.740Z,0.10
2022-10-04T18:30:10.933Z,0.10
2022-10-04T18:33:14.654Z,0.20
2022-10-04T18:36:20.226Z,0.20
2022-10-04T18:39:23.687Z,0.20
2022-10-04T18:42:36.270Z,0.20
2022-10-04T18:45:38.710Z,0.17
2022-10-04T18:48:51.272Z,0.30
2022-10-04T18:52:06.651Z,0.30
2022-10-04T18:55:25.704Z,0.13
2022-10-04T18:58:53.284Z,0.30
2022-10-04T19:02:07.181Z,0.20
2022-10-04T19:05:17.839Z,0.20
2022-10-04T19:08:32.948Z,0.40
2022-10-04T19:11:42.944Z,0.50
2022-10-04T19:14:53.291Z,0.50
2022-10-04T19:18:07.985Z,0.47
2022-10-04T19:21:19.846Z,0.50
2022-10-04T19:24:44.496Z,0.32
2022-10-04T19:27:54.096Z,0.50
2022-10-04T19:31:09.398Z,0.40
2022-10-04T19:34:17.270Z,0.32
2022-10-04T19:37:24.996Z,0.30
2022-10-04T19:40:37.342Z,0.40
2022-10-04T19:43:51.601Z,0.30
2022-10-04T19:46:59.875Z,0.38
2022-10-04T19:50:05.916Z,0.28
2022-10-04T19:53:16.337Z,0.20
2022-10-04T19:56:19.657Z,0.28
2022-10-04T19:59:29.050Z,0.20
2022-10-04T20:02:30.582Z,0.20
2022-10-04T20:05:32.134Z,0.20
2022-10-04T20:08:47.714Z,0.20
2022-10-04T20:11:53.294Z,0.30
2022-10-04T20:15:27.670Z,0.10
2022-10-04T20:18:58.365Z,0.10
2022-10-04T20:22:29.770Z,0.30
2022-10-04T20:25:59.004Z,0.10
2022-10-04T20:29:00.501Z,0.20
2022-10-04T20:32:03.550Z,0.28
2022-10-04T20:35:09.710Z,0.20
2022-10-04T20:38:31.829Z,0.20
2022-10-04T20:41:59.677Z,0.30
2022-10-04T20:45:05.500Z,0.40
2022-10-04T20:48:14.540Z,0.20
2022-10-04T20:51:21.696Z,0.40
2022-10-04T20:54:24.182Z,0.40
2022-10-04T20:57:25.696Z,0.43
2022-10-04T21:00:32.955Z,0.50
2022-10-04T21:03:36.009Z,0.30
2022-10-04T21:06:51.261Z,0.30
2022-10-04T21:10:06.768Z,0.40
2022-10-04T21:13:43.724Z,0.17
2022-10-04T21:16:48.056Z,0.20
2022-10-04T21:19:49.890Z,0.30
2022-10-04T21:23:07.474Z,0.10
2022-10-04T21:26:24.505Z,0.40
2022-10-04T21:29:26.029Z,0.30
2022-10-04T21:32:33.168Z,0.50
2022-10-04T21:35:34.779Z,0.28
2022-10-04T21:38:36.313Z,0.30
2022-10-04T21:41:37.904Z,0.30
2022-10-04T21:44:39.284Z,0.40
2022-10-04T21:50:43.187Z,0.20
2022-10-04T21:53:44.712Z,0.40
2022-10-04T21:56:46.442Z,0.35
2022-10-04T21:59:48.110Z,0.30
2022-10-04T22:05:54.655Z,0.30
2022-10-04T22:08:56.063Z,0.20
2022-10-04T22:14:58.805Z,0.30
2022-10-04T22:21:02.168Z,0.15
2022-10-04T22:24:09.933Z,0.30
2022-10-04T22:27:13.680Z,0.25
2022-10-04T22:30:22.062Z,0.20
2022-10-04T22:33:30.752Z,0.20
2022-10-04T22:36:37.316Z,0.20
2022-10-04T22:39:39.385Z,0.20
2022-10-04T22:42:41.887Z,0.30
2022-10-04T22:45:43.334Z,0.20
2022-10-04T22:48:47.410Z,0.25
2022-10-04T22:51:50.662Z,0.20
2022-10-04T22:54:56.472Z,0.20
2022-10-04T22:57:58.033Z,0.20
2022-10-04T23:01:00.669Z,0.30
2022-10-04T23:04:09.458Z,0.20
2022-10-04T23:07:14.450Z,0.20
2022-10-04T23:10:18.476Z,0.20
2022-10-04T23:13:24.566Z,0.22
2022-10-04T23:16:26.311Z,0.15
2022-10-04T23:22:31.383Z,0.20
2022-10-04T23:25:34.074Z,0.20
2022-10-04T23:28:36.709Z,0.13
2022-10-04T23:31:38.216Z,0.40
2022-10-04T23:34:43.777Z,0.30
2022-10-04T23:37:49.569Z,0.10
2022-10-04T23:40:51.090Z,0.10
2022-10-04T23:43:52.907Z,0.10
2022-10-04T23:46:54.353Z,0.20
2022-10-04T23:49:56.345Z,0.20
2022-10-04T23:53:03.535Z,0.28
2022-10-04T23:56:11.246Z,0.20
2022-10-04T23:59:16.207Z,0.10
